createdAt,value
2019-01-24T00:02:01.093Z,100113.45
2019-01-24T00:04:27.104Z,100112.27
2019-01-24T00:06:52.970Z,100115.11
2019-01-24T00:09:18.875Z,100119.97
2019-01-24T00:11:44.786Z,100119.36
2019-01-24T00:14:10.735Z,100126.95
2019-01-24T00:16:36.666Z,100129.14
2019-01-24T00:19:02.580Z,100124.71
2019-01-24T00:21:28.498Z,100123.57
2019-01-24T00:23:54.419Z,100124.10
2019-01-24T00:26:20.312Z,100123.77
2019-01-24T00:28:46.172Z,100130.25
2019-01-24T00:31:12.106Z,100127.22
2019-01-24T00:33:37.971Z,100130.47
2019-01-24T00:36:03.881Z,100137.42
2019-01-24T00:38:29.774Z,100131.88
2019-01-24T00:40:55.728Z,100135.48
2019-01-24T00:43:21.588Z,100134.41
2019-01-24T00:45:47.490Z,100135.66
2019-01-24T00:48:13.371Z,100133.38
2019-01-24T00:50:39.281Z,100139.27
2019-01-24T00:53:05.176Z,100132.20
2019-01-24T00:55:31.046Z,100138.20
2019-01-24T00:57:56.950Z,100147.62
2019-01-24T01:00:24.128Z,100147.69
2019-01-24T01:02:50.026Z,100153.34
2019-01-24T01:05:15.896Z,100149.87
2019-01-24T01:07:41.834Z,100141.14
2019-01-24T01:10:08.783Z,100145.84
2019-01-24T01:12:34.756Z,100154.64
2019-01-24T01:15:00.631Z,100153.05
2019-01-24T01:17:26.507Z,100155.64
2019-01-24T01:19:52.417Z,100166.77
2019-01-24T01:22:18.292Z,100162.50
2019-01-24T01:24:44.200Z,100168.53
2019-01-24T01:27:10.059Z,100173.30
2019-01-24T01:29:35.970Z,100162.78
2019-01-24T01:32:01.873Z,100164.45
2019-01-24T01:34:27.891Z,100164.24
2019-01-24T01:36:53.761Z,100160.36
2019-01-24T01:39:19.683Z,100168.14
2019-01-24T01:41:45.607Z,100164.86
2019-01-24T01:44:11.484Z,100164.86
2019-01-24T01:46:37.396Z,100174.84
2019-01-24T01:49:03.273Z,100169.98
2019-01-24T01:51:29.173Z,100169.07
2019-01-24T01:53:55.031Z,100166.78
2019-01-24T01:56:20.941Z,100173.88
2019-01-24T01:58:46.802Z,100174.63
2019-01-24T02:01:12.715Z,100175.79
2019-01-24T02:03:38.588Z,100178.22
2019-01-24T02:06:04.470Z,100182.47
2019-01-24T02:08:30.377Z,100177.00
2019-01-24T02:10:56.258Z,100173.36
2019-01-24T02:13:22.209Z,100169.73
2019-01-24T02:15:48.070Z,100167.23
2019-01-24T02:18:14.040Z,100176.32
2019-01-24T02:20:39.924Z,100171.53
2019-01-24T02:23:05.804Z,100166.83
2019-01-24T02:25:31.720Z,100168.08
2019-01-24T02:27:57.596Z,100164.72
2019-01-24T02:30:25.921Z,100167.30
2019-01-24T02:32:51.836Z,100166.20
2019-01-24T02:35:17.730Z,100170.41
2019-01-24T02:37:43.608Z,100176.20
2019-01-24T02:40:09.504Z,100178.71
2019-01-24T02:42:35.391Z,100181.56
2019-01-24T02:45:01.312Z,100180.74
2019-01-24T02:47:27.170Z,100178.90
2019-01-24T02:49:53.073Z,100179.08
2019-01-24T02:52:18.947Z,100174.88
2019-01-24T02:54:44.858Z,100176.05
2019-01-24T02:57:10.718Z,100178.20
2019-01-24T02:59:36.598Z,100184.88
2019-01-24T03:02:02.809Z,100181.23
2019-01-24T03:04:28.676Z,100179.70
2019-01-24T03:06:54.575Z,100178.08
2019-01-24T03:09:20.452Z,100182.41
2019-01-24T03:11:46.393Z,100184.11
2019-01-24T03:14:12.268Z,100186.63
2019-01-24T03:16:38.188Z,100180.56
2019-01-24T03:19:04.076Z,100179.66
2019-01-24T03:21:29.958Z,100179.66
2019-01-24T03:23:55.872Z,100186.59
2019-01-24T03:26:21.753Z,100180.38
2019-01-24T03:28:48.163Z,100180.38
2019-01-24T03:31:14.084Z,100164.22
2019-01-24T03:33:40.003Z,100178.73
2019-01-24T03:36:05.875Z,100179.53
2019-01-24T03:38:31.779Z,100185.04
2019-01-24T03:40:57.654Z,100182.52
2019-01-24T03:43:23.555Z,100183.98
2019-01-24T03:45:49.472Z,100189.95
2019-01-24T03:48:15.382Z,100180.83
2019-01-24T03:50:41.248Z,100178.33
2019-01-24T03:53:07.151Z,100179.49
2019-01-24T03:55:33.085Z,100177.05
2019-01-24T03:57:59.008Z,100186.85
2019-01-24T04:00:24.932Z,100187.38
2019-01-24T04:02:50.811Z,100190.05
2019-01-24T04:05:16.827Z,100192.27
2019-01-24T04:07:42.692Z,100196.63
2019-01-24T04:10:19.384Z,100197.62
2019-01-24T04:12:45.256Z,100193.59
2019-01-24T04:15:17.229Z,100194.03
2019-01-24T04:17:43.131Z,100197.38
2019-01-24T04:20:09.750Z,100196.14
2019-01-24T04:22:35.633Z,100197.30
2019-01-24T04:25:01.540Z,100204.32
2019-01-24T04:27:27.458Z,100196.94
2019-01-24T04:29:53.355Z,100198.02
2019-01-24T04:32:19.255Z,100200.13
2019-01-24T04:34:45.212Z,100197.09
2019-01-24T04:37:11.113Z,100203.42
2019-01-24T04:39:36.988Z,100202.91
2019-01-24T04:42:02.923Z,100207.64
2019-01-24T04:44:28.792Z,100208.48
2019-01-24T04:46:54.821Z,100205.50
2019-01-24T04:49:20.720Z,100203.78
2019-01-24T04:51:46.594Z,100205.99
2019-01-24T04:54:12.504Z,100206.73
2019-01-24T04:56:38.403Z,100210.20
2019-01-24T04:59:04.311Z,100205.44
2019-01-24T05:01:30.179Z,100203.42
2019-01-24T05:03:56.111Z,100211.08
2019-01-24T05:06:21.978Z,100213.34
2019-01-24T05:08:47.894Z,100212.25
2019-01-24T05:11:13.801Z,100223.11
2019-01-24T05:13:39.852Z,100226.48
2019-01-24T05:16:05.728Z,100230.56
2019-01-24T05:18:31.645Z,100233.23
2019-01-24T05:20:57.531Z,100237.28
2019-01-24T05:23:23.394Z,100232.33
2019-01-24T05:25:49.316Z,100237.99
2019-01-24T05:28:15.186Z,100240.18
2019-01-24T05:30:41.132Z,100235.03
2019-01-24T05:33:07.002Z,100241.05
2019-01-24T05:35:34.844Z,100242.70
2019-01-24T05:38:00.734Z,100239.02
2019-01-24T05:40:26.607Z,100246.72
2019-01-24T05:42:52.500Z,100244.55
2019-01-24T05:45:18.386Z,100250.31
2019-01-24T05:47:44.303Z,100245.91
2019-01-24T05:50:11.390Z,100251.84
2019-01-24T05:52:37.297Z,100251.78
2019-01-24T05:55:05.161Z,100245.96
2019-01-24T05:57:31.064Z,100254.20
2019-01-24T05:59:56.982Z,100254.84
2019-01-24T06:02:22.961Z,100262.48
2019-01-24T06:04:48.877Z,100261.91
2019-01-24T06:07:14.750Z,100259.92
2019-01-24T06:09:40.657Z,100264.69
2019-01-24T06:12:06.546Z,100269.66
2019-01-24T06:14:32.421Z,100270.28
2019-01-24T06:16:58.316Z,100271.84
2019-01-24T06:19:24.199Z,100268.22
2019-01-24T06:21:50.117Z,100266.61
2019-01-24T06:24:16.003Z,100268.17
2019-01-24T06:26:41.909Z,100275.78
2019-01-24T06:29:07.877Z,100277.45
2019-01-24T06:31:33.817Z,100283.42
2019-01-24T06:33:59.737Z,100286.00
2019-01-24T06:36:25.638Z,100288.27
2019-01-24T06:38:51.555Z,100288.63
2019-01-24T06:41:17.437Z,100277.96
2019-01-24T06:43:43.359Z,100287.39
2019-01-24T06:46:09.230Z,100289.69
2019-01-24T06:48:35.093Z,100295.88
2019-01-24T06:51:01.002Z,100295.33
2019-01-24T06:53:26.869Z,100301.64
2019-01-24T06:55:52.786Z,100300.20
2019-01-24T06:58:18.663Z,100302.66
2019-01-24T07:00:44.739Z,100303.80
2019-01-24T07:03:10.656Z,100302.31
2019-01-24T07:05:36.634Z,100305.42
2019-01-24T07:08:02.537Z,100308.70
2019-01-24T07:10:28.414Z,100300.38
2019-01-24T07:12:54.338Z,100298.88
2019-01-24T07:15:21.219Z,100303.33
2019-01-24T07:17:47.143Z,100303.56
2019-01-24T07:20:15.028Z,100311.48
2019-01-24T07:22:41.048Z,100308.37
2019-01-24T07:25:10.539Z,100310.71
2019-01-24T07:27:36.436Z,100316.75
2019-01-24T07:30:09.078Z,100319.36
2019-01-24T07:32:35.041Z,100322.27
2019-01-24T07:35:00.947Z,100320.88
2019-01-24T07:37:26.833Z,100321.16
2019-01-24T07:39:52.734Z,100325.31
2019-01-24T07:42:18.613Z,100325.59
2019-01-24T07:44:44.522Z,100331.33
2019-01-24T07:47:10.393Z,100333.33
2019-01-24T07:49:36.297Z,100331.61
2019-01-24T07:52:02.178Z,100333.87
2019-01-24T07:54:28.099Z,100334.84
2019-01-24T07:56:53.965Z,100338.42
2019-01-24T07:59:19.883Z,100347.16
2019-01-24T08:01:45.812Z,100348.96
2019-01-24T08:04:11.719Z,100355.11
2019-01-24T08:06:41.741Z,100352.81
2019-01-24T08:09:07.858Z,100356.05
2019-01-24T08:11:33.787Z,100349.36
2019-01-24T08:13:59.690Z,100348.74
2019-01-24T08:16:25.572Z,100338.86
2019-01-24T08:18:51.470Z,100348.03
2019-01-24T08:21:17.386Z,100343.40
2019-01-24T08:23:43.330Z,100344.42
2019-01-24T08:26:09.264Z,100345.53
2019-01-24T08:28:35.138Z,100341.61
2019-01-24T08:31:01.276Z,100342.56
2019-01-24T08:33:27.226Z,100344.35
2019-01-24T08:35:53.130Z,100349.42
2019-01-24T08:38:19.002Z,100352.30
2019-01-24T08:40:44.920Z,100353.69
2019-01-24T08:43:10.781Z,100352.89
2019-01-24T08:45:36.711Z,100358.52
2019-01-24T08:48:02.682Z,100359.00
2019-01-24T08:50:28.607Z,100355.19
2019-01-24T08:52:54.484Z,100355.80
2019-01-24T08:55:29.474Z,100361.45
2019-01-24T08:57:55.332Z,100361.22
2019-01-24T09:00:21.230Z,100356.33
2019-01-24T09:02:47.621Z,100358.14
2019-01-24T09:05:13.535Z,100356.59
2019-01-24T09:07:39.410Z,100358.58
2019-01-24T09:10:08.987Z,100355.55
2019-01-24T09:12:34.945Z,100364.50
2019-01-24T09:15:01.208Z,100352.16
2019-01-24T09:17:27.093Z,100358.48
2019-01-24T09:19:52.975Z,100360.99
2019-01-24T09:22:18.873Z,100364.91
2019-01-24T09:24:44.733Z,100362.40
2019-01-24T09:27:10.691Z,100374.55
2019-01-24T09:29:36.552Z,100372.86
2019-01-24T09:32:02.563Z,100368.66
2019-01-24T09:34:28.471Z,100380.63
2019-01-24T09:36:54.396Z,100383.30
2019-01-24T09:39:20.273Z,100381.47
2019-01-24T09:41:46.151Z,100387.62
2019-01-24T09:44:12.045Z,100395.30
2019-01-24T09:46:37.922Z,100385.95
2019-01-24T09:49:03.831Z,100392.00
2019-01-24T09:51:29.684Z,100393.78
2019-01-24T09:53:55.598Z,100398.09
2019-01-24T09:56:21.466Z,100384.33
2019-01-24T09:58:47.392Z,100392.84
2019-01-24T10:01:13.280Z,100393.73
2019-01-24T10:03:39.220Z,100393.73
2019-01-24T10:06:05.243Z,100394.25
2019-01-24T10:08:31.104Z,100399.02
2019-01-24T10:10:57.039Z,100404.69
2019-01-24T10:13:23.054Z,100408.14
2019-01-24T10:15:48.930Z,100417.59
2019-01-24T10:18:21.453Z,100414.37
2019-01-24T10:20:42.613Z,100409.36
2019-01-24T10:23:08.496Z,100412.86
2019-01-24T10:25:35.200Z,100409.45
2019-01-24T10:28:01.111Z,100401.60
2019-01-24T10:30:27.150Z,100402.53
2019-01-24T10:32:53.266Z,100409.46
2019-01-24T10:35:19.201Z,100407.33
2019-01-24T10:37:45.078Z,100407.34
2019-01-24T10:40:19.638Z,100404.31
2019-01-24T10:42:45.521Z,100398.59
2019-01-24T10:45:14.041Z,100402.58
2019-01-24T10:47:39.935Z,100400.45
2019-01-24T10:50:09.371Z,100394.03
2019-01-24T10:52:35.251Z,100395.72
2019-01-24T10:55:01.457Z,100398.77
2019-01-24T10:57:27.368Z,100397.48
2019-01-24T10:59:53.267Z,100398.34
2019-01-24T11:02:19.142Z,100406.93
2019-01-24T11:04:45.060Z,100403.52
2019-01-24T11:07:10.995Z,100396.59
2019-01-24T11:09:36.876Z,100398.34
2019-01-24T11:12:02.800Z,100401.33
2019-01-24T11:14:28.725Z,100394.45
2019-01-24T11:16:54.618Z,100398.35
2019-01-24T11:19:20.491Z,100391.89
2019-01-24T11:21:46.410Z,100394.45
2019-01-24T11:24:12.338Z,100399.19
2019-01-24T11:26:38.257Z,100388.80
2019-01-24T11:29:04.166Z,100398.25
2019-01-24T11:31:30.074Z,100400.02
2019-01-24T11:33:55.994Z,100400.86
2019-01-24T11:36:21.911Z,100403.34
2019-01-24T11:38:47.923Z,100403.27
2019-01-24T11:41:13.790Z,100396.50
2019-01-24T11:43:39.728Z,100397.81
2019-01-24T11:46:05.593Z,100391.68
2019-01-24T11:48:31.455Z,100397.42
2019-01-24T11:50:57.381Z,100384.95
2019-01-24T11:53:23.261Z,100385.38
2019-01-24T11:55:49.178Z,100386.27
2019-01-24T11:58:15.059Z,100381.09
2019-01-24T12:00:42.860Z,100378.52
2019-01-24T12:03:08.732Z,100386.98
2019-01-24T12:05:34.614Z,100380.90
2019-01-24T12:08:00.538Z,100381.02
2019-01-24T12:10:28.071Z,100374.59
2019-01-24T12:12:53.952Z,100373.71
2019-01-24T12:15:21.893Z,100374.61
2019-01-24T12:17:47.797Z,100370.73
2019-01-24T12:20:16.071Z,100379.73
2019-01-24T12:22:41.985Z,100371.97
2019-01-24T12:25:08.957Z,100378.83
2019-01-24T12:27:34.867Z,100383.52
2019-01-24T12:30:00.741Z,100378.75
2019-01-24T12:32:26.663Z,100383.64
2019-01-24T12:34:52.728Z,100380.22
2019-01-24T12:37:18.675Z,100377.62
2019-01-24T12:39:44.550Z,100374.96
2019-01-24T12:42:10.429Z,100376.25
2019-01-24T12:44:36.350Z,100375.87
2019-01-24T12:47:02.225Z,100372.91
2019-01-24T12:49:28.145Z,100367.73
2019-01-24T12:51:54.016Z,100371.62
2019-01-24T12:54:19.925Z,100374.22
2019-01-24T12:56:45.796Z,100376.81
2019-01-24T12:59:11.732Z,100383.13
2019-01-24T13:01:37.616Z,100383.52
2019-01-24T13:04:03.536Z,100385.12
2019-01-24T13:06:29.418Z,100384.73
2019-01-24T13:08:55.356Z,100383.80
2019-01-24T13:11:21.271Z,100389.53
2019-01-24T13:13:47.179Z,100385.89
2019-01-24T13:16:13.081Z,100384.73
2019-01-24T13:18:38.957Z,100386.98
2019-01-24T13:21:04.868Z,100380.71
2019-01-24T13:23:30.740Z,100393.16
2019-01-24T13:25:58.720Z,100381.75
2019-01-24T13:28:24.692Z,100393.80
2019-01-24T13:30:50.650Z,100391.05
2019-01-24T13:33:16.515Z,100390.64
2019-01-24T13:35:42.433Z,100398.92
2019-01-24T13:38:08.299Z,100398.16
2019-01-24T13:40:34.223Z,100398.97
2019-01-24T13:43:00.103Z,100399.88
2019-01-24T13:45:29.022Z,100398.87
2019-01-24T13:47:54.893Z,100401.48
2019-01-24T13:50:20.906Z,100407.83
2019-01-24T13:52:46.774Z,100402.36
2019-01-24T13:55:12.706Z,100409.22
2019-01-24T13:57:38.637Z,100409.66
2019-01-24T14:00:08.324Z,100414.89
2019-01-24T14:02:34.548Z,100410.65
2019-01-24T14:05:00.453Z,100415.00
2019-01-24T14:07:32.827Z,100414.46
2019-01-24T14:09:54.106Z,100418.36
2019-01-24T14:12:20.038Z,100418.83
2019-01-24T14:14:46.448Z,100411.66
2019-01-24T14:17:12.324Z,100411.66
2019-01-24T14:19:39.176Z,100418.66
2019-01-24T14:22:05.200Z,100424.80
2019-01-24T14:24:31.069Z,100426.84
2019-01-24T14:26:56.966Z,100424.77
2019-01-24T14:29:22.886Z,100429.28
2019-01-24T14:31:48.788Z,100436.67
2019-01-24T14:34:14.830Z,100433.30
2019-01-24T14:36:41.064Z,100433.16
2019-01-24T14:39:07.274Z,100429.48
2019-01-24T14:41:33.174Z,100427.30
2019-01-24T14:43:59.045Z,100427.20
2019-01-24T14:46:24.978Z,100426.52
2019-01-24T14:48:50.857Z,100429.95
2019-01-24T14:51:16.734Z,100431.13
2019-01-24T14:53:42.644Z,100432.79
2019-01-24T14:56:08.578Z,100426.58
2019-01-24T14:58:34.495Z,100433.44
2019-01-24T15:01:02.120Z,100427.07
2019-01-24T15:03:28.126Z,100432.56
2019-01-24T15:05:54.052Z,100433.28
2019-01-24T15:08:19.944Z,100429.50
2019-01-24T15:10:45.868Z,100429.50
2019-01-24T15:13:11.738Z,100438.44
2019-01-24T15:15:38.239Z,100431.97
2019-01-24T15:18:05.130Z,100441.89
2019-01-24T15:20:31.003Z,100440.57
2019-01-24T15:22:56.915Z,100443.48
2019-01-24T15:25:22.793Z,100453.13
2019-01-24T15:27:48.709Z,100452.55
2019-01-24T15:30:21.383Z,100458.12
2019-01-24T15:32:47.250Z,100456.66
2019-01-24T15:35:13.157Z,100448.77
2019-01-24T15:37:39.072Z,100460.13
2019-01-24T15:40:14.632Z,100454.67
2019-01-24T15:42:40.569Z,100464.77
2019-01-24T15:45:09.878Z,100469.91
2019-01-24T15:47:35.762Z,100465.22
2019-01-24T15:50:03.593Z,100469.16
2019-01-24T15:52:34.010Z,100473.89
2019-01-24T15:54:57.285Z,100475.62
2019-01-24T15:57:23.166Z,100470.17
2019-01-24T15:59:49.068Z,100474.14
2019-01-24T16:02:14.954Z,100482.44
2019-01-24T16:04:40.858Z,100487.59
2019-01-24T16:07:06.744Z,100486.88
2019-01-24T16:09:32.672Z,100487.66
2019-01-24T16:11:58.551Z,100491.60
2019-01-24T16:14:24.518Z,100494.80
2019-01-24T16:16:50.418Z,100494.05
2019-01-24T16:19:16.309Z,100494.57
2019-01-24T16:21:42.263Z,100496.70
2019-01-24T16:24:08.089Z,100499.52
2019-01-24T16:26:34.003Z,100497.92
2019-01-24T16:28:59.887Z,100504.66
2019-01-24T16:31:25.785Z,100514.06
2019-01-24T16:33:51.707Z,100512.34
2019-01-24T16:36:17.665Z,100500.94
2019-01-24T16:38:43.535Z,100502.02
2019-01-24T16:41:09.445Z,100505.66
2019-01-24T16:43:35.314Z,100508.16
2019-01-24T16:46:01.183Z,100511.19
2019-01-24T16:48:27.086Z,100513.06
2019-01-24T16:50:52.963Z,100516.39
2019-01-24T16:53:18.877Z,100521.52
2019-01-24T16:55:44.748Z,100522.59
2019-01-24T16:58:10.658Z,100525.93
2019-01-24T17:00:42.386Z,100533.50
2019-01-24T17:03:08.316Z,100528.73
2019-01-24T17:05:34.189Z,100530.38
2019-01-24T17:08:00.106Z,100537.34
2019-01-24T17:10:27.390Z,100540.74
2019-01-24T17:12:53.294Z,100539.90
2019-01-24T17:15:19.205Z,100549.63
2019-01-24T17:17:45.140Z,100550.81
2019-01-24T17:20:14.417Z,100544.70
2019-01-24T17:22:40.330Z,100547.44
2019-01-24T17:25:09.656Z,100557.89
2019-01-24T17:27:35.582Z,100553.50
2019-01-24T17:30:01.453Z,100555.87
2019-01-24T17:32:27.395Z,100551.15
2019-01-24T17:34:53.683Z,100554.42
2019-01-24T17:37:19.708Z,100559.36
2019-01-24T17:39:45.723Z,100560.18
2019-01-24T17:42:11.629Z,100558.87
2019-01-24T17:44:37.541Z,100557.27
2019-01-24T17:47:03.663Z,100557.73
2019-01-24T17:49:29.613Z,100559.12
2019-01-24T17:51:58.584Z,100557.91
2019-01-24T17:54:24.696Z,100561.70
2019-01-24T17:56:50.570Z,100565.66
2019-01-24T17:59:16.508Z,100563.98
2019-01-24T18:01:42.435Z,100567.42
2019-01-24T18:04:08.360Z,100564.39
2019-01-24T18:06:34.376Z,100576.52
2019-01-24T18:09:00.263Z,100573.77
2019-01-24T18:11:26.197Z,100577.13
2019-01-24T18:13:52.082Z,100579.71
2019-01-24T18:16:18.063Z,100576.23
2019-01-24T18:18:43.931Z,100571.17
2019-01-24T18:21:09.800Z,100573.39
2019-01-24T18:23:35.729Z,100573.69
2019-01-24T18:26:01.638Z,100573.33
2019-01-24T18:28:27.545Z,100569.05
2019-01-24T18:30:53.430Z,100576.66
2019-01-24T18:33:19.395Z,100582.30
2019-01-24T18:35:45.276Z,100587.89
2019-01-24T18:38:11.247Z,100585.78
2019-01-24T18:40:37.138Z,100591.05
2019-01-24T18:43:05.766Z,100595.20
2019-01-24T18:45:46.571Z,100599.01
2019-01-24T18:48:12.533Z,100601.67
2019-01-24T18:50:38.406Z,100597.05
2019-01-24T18:53:04.518Z,100594.00
2019-01-24T18:55:30.446Z,100596.93
2019-01-24T18:57:56.437Z,100606.23
2019-01-24T19:00:41.038Z,100609.72
2019-01-24T19:03:07.372Z,100611.48
2019-01-24T19:05:33.248Z,100613.98
2019-01-24T19:07:59.207Z,100608.86
2019-01-24T19:10:25.082Z,100604.21
2019-01-24T19:12:51.115Z,100601.98
2019-01-24T19:15:18.961Z,100612.37
2019-01-24T19:17:45.720Z,100612.74
2019-01-24T19:20:12.117Z,100614.03
2019-01-24T19:22:38.026Z,100617.42
2019-01-24T19:25:09.799Z,100616.14
2019-01-24T19:27:35.735Z,100620.48
2019-01-24T19:30:04.824Z,100624.75
2019-01-24T19:32:30.809Z,100630.63
2019-01-24T19:34:56.729Z,100628.09
2019-01-24T19:37:22.677Z,100632.77
2019-01-24T19:39:48.690Z,100628.50
2019-01-24T19:42:14.617Z,100631.04
2019-01-24T19:44:40.545Z,100634.98
2019-01-24T19:47:06.552Z,100639.59
2019-01-24T19:49:32.479Z,100634.58
2019-01-24T19:51:58.419Z,100631.02
2019-01-24T19:54:24.353Z,100632.64
2019-01-24T19:56:50.231Z,100633.06
2019-01-24T19:59:16.141Z,100638.73
2019-01-24T20:01:42.013Z,100646.55
2019-01-24T20:04:07.944Z,100647.45
2019-01-24T20:06:33.828Z,100646.13
2019-01-24T20:09:00.379Z,100653.33
2019-01-24T20:11:26.528Z,100656.50
2019-01-24T20:13:52.441Z,100653.11
2019-01-24T20:16:18.357Z,100650.98
2019-01-24T20:18:44.323Z,100650.20
2019-01-24T20:21:10.337Z,100654.53
2019-01-24T20:23:36.293Z,100660.55
2019-01-24T20:26:02.193Z,100657.13
2019-01-24T20:28:28.159Z,100657.13
2019-01-24T20:30:54.067Z,100658.79
2019-01-24T20:33:20.030Z,100664.00
2019-01-24T20:35:49.370Z,100661.77
2019-01-24T20:38:15.311Z,100661.21
2019-01-24T20:40:41.345Z,100663.48
2019-01-24T20:43:09.152Z,100662.33
2019-01-24T20:45:35.103Z,100667.73
2019-01-24T20:48:01.009Z,100665.58
2019-01-24T20:50:26.963Z,100674.20
2019-01-24T20:52:52.886Z,100669.94
2019-01-24T20:55:18.842Z,100671.30
2019-01-24T20:57:44.754Z,100672.52
2019-01-24T21:00:16.962Z,100675.09
2019-01-24T21:02:43.120Z,100670.37
2019-01-24T21:05:11.272Z,100678.14
2019-01-24T21:07:37.286Z,100674.28
2019-01-24T21:10:07.030Z,100669.69
2019-01-24T21:12:32.970Z,100674.98
2019-01-24T21:14:58.914Z,100672.52
2019-01-24T21:17:24.886Z,100668.22
2019-01-24T21:19:50.829Z,100675.39
2019-01-24T21:22:16.721Z,100676.87
2019-01-24T21:24:46.104Z,100671.32
2019-01-24T21:27:12.111Z,100674.37
2019-01-24T21:29:38.056Z,100678.73
2019-01-24T21:32:03.999Z,100676.10
2019-01-24T21:34:29.953Z,100676.73
2019-01-24T21:36:55.927Z,100680.53
2019-01-24T21:39:22.389Z,100681.78
2019-01-24T21:41:48.492Z,100675.71
2019-01-24T21:44:14.400Z,100676.78
2019-01-24T21:46:40.364Z,100679.08
2019-01-24T21:49:06.270Z,100677.77
2019-01-24T21:51:32.199Z,100682.08
2019-01-24T21:53:58.111Z,100681.72
2019-01-24T21:56:24.087Z,100686.58
2019-01-24T21:58:50.031Z,100679.63
2019-01-24T22:01:15.969Z,100677.41
2019-01-24T22:03:41.870Z,100675.36
2019-01-24T22:06:07.832Z,100684.84
2019-01-24T22:08:33.742Z,100678.30
2019-01-24T22:10:59.681Z,100670.17
2019-01-24T22:13:25.624Z,100664.87
2019-01-24T22:15:51.885Z,100664.00
2019-01-24T22:18:20.970Z,100670.95
2019-01-24T22:20:46.991Z,100673.67
2019-01-24T22:23:12.928Z,100665.86
2019-01-24T22:25:38.889Z,100667.16
2019-01-24T22:28:04.800Z,100664.48
2019-01-24T22:30:35.632Z,100659.80
2019-01-24T22:33:02.205Z,100662.05
2019-01-24T22:35:28.129Z,100660.67
2019-01-24T22:37:54.087Z,100665.78
2019-01-24T22:40:20.030Z,100664.86
2019-01-24T22:42:45.923Z,100667.63
2019-01-24T22:45:15.118Z,100674.38
2019-01-24T22:47:41.024Z,100668.78
2019-01-24T22:50:10.175Z,100666.52
2019-01-24T22:52:36.066Z,100669.02
2019-01-24T22:55:02.874Z,100668.74
2019-01-24T22:57:28.810Z,100678.05
2019-01-24T22:59:54.872Z,100680.82
2019-01-24T23:02:20.818Z,100686.30
2019-01-24T23:04:46.712Z,100687.36
2019-01-24T23:07:12.663Z,100686.67
2019-01-24T23:09:44.011Z,100684.61
2019-01-24T23:12:06.663Z,100684.72
2019-01-24T23:14:32.700Z,100685.59
2019-01-24T23:16:58.665Z,100681.68
2019-01-24T23:19:24.566Z,100683.51
2019-01-24T23:21:50.509Z,100685.05
2019-01-24T23:24:16.453Z,100681.13
2019-01-24T23:26:42.348Z,100684.61
2019-01-24T23:29:08.296Z,100679.45
2019-01-24T23:31:34.363Z,100676.63
2019-01-24T23:34:00.321Z,100683.23
2019-01-24T23:36:26.224Z,100682.42
2019-01-24T23:38:52.171Z,100684.61
2019-01-24T23:41:18.125Z,100688.14
2019-01-24T23:43:44.095Z,100674.50
2019-01-24T23:46:10.196Z,100681.94
2019-01-24T23:48:36.103Z,100676.88
2019-01-24T23:51:02.058Z,100680.45
2019-01-24T23:53:28.016Z,100686.34
2019-01-24T23:55:53.958Z,100685.27
2019-01-24T23:58:19.862Z,100684.47
